Time;durP1;ratioP1;P1;durP2;ratioP2;P2;SDS_P1;SDS_P2;PMS_P1;PMS_P2;Temp;Humidity;BMP_temperature;BMP_pressure;BME280_temperature;BME280_humidity;BME280_pressure;Samples;Min_cycle;Max_cycle;Signal;HPM_P1;HPM_P2
2021/11/10 00:00:47;;;;;;;20.93;16.07;;;4.70;99.90;;;5.22;100.00;101302.47;5092455;28;20199;-55
2021/11/10 00:03:16;;;;;;;25.03;16.10;;;4.70;99.90;;;5.29;100.00;101298.19;5092218;28;20203;-53
2021/11/10 00:05:44;;;;;;;22.90;17.07;;;4.80;99.90;;;5.39;100.00;101288.22;5092418;28;20684;-54
2021/11/10 00:08:12;;;;;;;23.87;16.33;;;4.80;99.90;;;5.55;100.00;101289.16;5092506;28;20213;-53
2021/11/10 00:10:40;;;;;;;21.00;16.13;;;4.90;99.90;;;5.36;100.00;101284.03;5092516;28;20213;-54
2021/11/10 00:13:20;;;;;;;22.40;15.57;;;4.80;99.90;;;5.20;100.00;101291.09;5092072;28;20722;-54
2021/11/10 00:15:52;;;;;;;19.43;15.30;;;4.80;99.90;;;5.21;100.00;101284.78;5092327;28;20283;-55
2021/11/10 00:18:22;;;;;;;25.87;16.00;;;4.70;99.90;;;5.14;100.00;101278.41;5092272;28;20234;-54
2021/11/10 00:20:50;;;;;;;23.37;16.00;;;4.70;99.90;;;5.07;100.00;101269.34;5091802;28;20212;-55
2021/11/10 00:23:18;;;;;;;24.77;16.53;;;4.60;99.90;;;5.17;100.00;101267.41;5091971;28;20753;-53
2021/11/10 00:25:46;;;;;;;23.77;16.43;;;4.60;99.90;;;5.13;100.00;101266.88;5092314;28;20309;-55
2021/11/10 00:28:15;;;;;;;20.73;16.47;;;4.60;99.90;;;5.13;100.00;101260.69;5092324;28;20270;-50
2021/11/10 00:30:43;;;;;;;20.33;15.93;;;4.60;99.90;;;5.05;100.00;101264.16;5091783;28;20691;-54
2021/11/10 00:33:11;;;;;;;22.73;14.60;;;4.60;99.90;;;4.98;100.00;101255.94;5092028;28;20322;-54
2021/11/10 00:35:41;;;;;;;19.20;15.53;;;4.60;99.90;;;4.98;100.00;101258.63;5092233;28;20202;-54
2021/11/10 00:38:09;;;;;;;20.90;15.83;;;4.50;99.90;;;5.04;100.00;101264.31;5092128;28;20232;-53
2021/11/10 00:40:37;;;;;;;20.40;15.63;;;4.60;99.90;;;4.92;100.00;101248.53;5092194;28;20207;-53
2021/11/10 00:43:06;;;;;;;22.00;15.50;;;4.50;99.90;;;4.92;100.00;101264.56;5091733;28;20239;-53
2021/11/10 00:45:34;;;;;;;19.10;15.20;;;4.50;99.90;;;4.84;100.00;101256.50;5091596;28;20570;-52
2021/11/10 00:48:02;;;;;;;21.67;15.70;;;4.40;99.90;;;4.85;100.00;101260.81;5092906;28;20285;-53
2021/11/10 00:50:30;;;;;;;22.40;16.63;;;4.50;99.90;;;4.78;100.00;101258.94;5092201;28;20207;-54
2021/11/10 00:53:00;;;;;;;22.30;16.33;;;4.40;99.90;;;4.85;100.00;101262.69;5091600;28;20746;-53
2021/11/10 00:55:29;;;;;;;19.73;15.70;;;4.40;99.90;;;4.84;100.00;101267.19;5091916;28;20205;-53
2021/11/10 00:57:57;;;;;;;20.30;15.37;;;4.40;99.90;;;4.76;100.00;101253.78;5091558;28;20248;-52
2021/11/10 01:00:25;;;;;;;23.47;16.67;;;4.30;99.90;;;4.94;100.00;101269.72;5095919;28;20203;-53
2021/11/10 01:02:54;;;;;;;22.03;15.93;;;4.40;99.90;;;4.90;100.00;101258.53;5095921;28;20219;-51
2021/11/10 01:05:22;;;;;;;21.27;15.53;;;4.30;99.90;;;4.72;100.00;101252.41;5096052;28;20621;-54
2021/11/10 01:07:50;;;;;;;21.77;15.20;;;4.30;99.90;;;4.71;100.00;101244.56;5096008;28;20209;-51
2021/11/10 01:10:19;;;;;;;16.63;14.20;;;4.30;99.90;;;4.69;100.00;101239.38;5095886;28;20209;-55
2021/11/10 01:12:48;;;;;;;19.93;16.00;;;4.30;99.90;;;4.61;100.00;101225.97;5095876;28;20222;-53
2021/11/10 01:15:17;;;;;;;20.20;15.70;;;4.20;99.90;;;4.63;100.00;101225.81;5095691;28;20289;-54
2021/11/10 01:17:46;;;;;;;21.57;15.13;;;4.20;99.90;;;4.61;100.00;101225.97;5095637;28;20687;-55
2021/11/10 01:20:15;;;;;;;20.10;15.63;;;4.20;99.90;;;4.51;100.00;101216.38;5096036;28;20202;-55
2021/11/10 01:22:43;;;;;;;19.27;14.87;;;4.10;99.90;;;4.51;100.00;101219.91;5095627;28;20202;-54
2021/11/10 01:25:13;;;;;;;21.20;16.10;;;4.10;99.90;;;4.45;100.00;101211.66;5095571;28;20198;-54
2021/11/10 01:27:42;;;;;;;22.07;17.27;;;4.10;99.90;;;4.41;100.00;101205.81;5095671;28;20206;-51
2021/11/10 01:30:12;;;;;;;20.53;15.80;;;4.10;99.90;;;4.51;100.00;101197.72;5095453;28;20246;-54
2021/11/10 01:32:41;;;;;;;22.23;16.67;;;4.10;99.90;;;4.48;100.00;101193.50;5094953;28;20219;-53
2021/11/10 01:35:10;;;;;;;21.63;16.80;;;4.10;99.90;;;4.47;100.00;101196.31;5095479;28;20223;-50
2021/11/10 01:37:39;;;;;;;21.40;16.73;;;4.00;99.90;;;4.49;100.00;101191.69;5095373;28;20199;-54
2021/11/10 01:40:10;;;;;;;24.63;16.80;;;4.00;99.90;;;4.75;100.00;101190.69;5095269;28;20202;-55
2021/11/10 01:42:40;;;;;;;20.53;16.23;;;4.10;99.90;;;4.73;100.00;101187.38;5094887;28;20231;-52
2021/11/10 01:45:14;;;;;;;20.97;15.57;;;4.10;99.90;;;4.66;100.00;101180.13;5095033;28;20187;-52
2021/11/10 01:47:42;;;;;;;21.40;16.57;;;4.10;99.90;;;4.56;100.00;101177.59;5095212;28;20244;-54
2021/11/10 01:50:16;;;;;;;20.67;16.77;;;4.10;99.90;;;4.78;100.00;101181.56;5095198;28;20303;-54
2021/11/10 01:52:45;;;;;;;20.77;16.63;;;4.20;99.90;;;4.70;100.00;101177.00;5094841;28;20209;-52
2021/11/10 01:55:13;;;;;;;19.87;16.00;;;4.10;99.90;;;4.48;100.00;101171.34;5094903;28;20229;-54
2021/11/10 01:57:42;;;;;;;25.53;16.53;;;4.10;99.90;;;4.51;100.00;101163.03;5095078;28;20298;-52
2021/11/10 02:00:17;;;;;;;20.63;15.07;;;4.00;99.90;;;4.47;100.00;101156.31;5094762;28;20202;-56
2021/11/10 02:02:45;;;;;;;23.30;16.80;;;4.00;99.90;;;4.45;100.00;101164.47;5094852;28;20277;-55
2021/11/10 02:05:16;;;;;;;21.17;15.83;;;3.90;99.90;;;4.42;100.00;101161.28;5094898;28;20208;-54
2021/11/10 02:07:45;;;;;;;24.70;16.60;;;3.90;99.90;;;4.60;100.00;101154.91;5094826;28;20706;-53
2021/11/10 02:10:17;;;;;;;21.40;16.63;;;3.90;99.90;;;4.64;100.00;101145.63;5093740;28;20768;-55
2021/11/10 02:12:46;;;;;;;20.90;16.87;;;4.00;99.90;;;4.50;100.00;101132.03;5094801;28;20246;-50
2021/11/10 02:15:19;;;;;;;20.47;16.17;;;3.90;99.90;;;4.42;100.00;101135.47;5094636;28;20199;-52
2021/11/10 02:17:49;;;;;;;19.60;15.97;;;4.00;99.90;;;4.46;100.00;101138.66;5094609;28;20187;-52
2021/11/10 02:20:17;;;;;;;23.23;16.80;;;3.90;99.90;;;4.45;100.00;101144.97;5094632;28;20623;-51
2021/11/10 02:22:50;;;;;;;23.33;17.27;;;3.90;99.90;;;4.49;100.00;101133.84;5094254;28;20722;-52
2021/11/10 02:25:18;;;;;;;25.07;17.60;;;3.90;99.90;;;4.69;100.00;101137.13;5094449;28;20182;-53
2021/11/10 02:27:47;;;;;;;22.37;17.43;;;3.90;99.90;;;4.75;100.00;101140.00;5094426;28;20576;-53
2021/11/10 02:30:19;;;;;;;27.13;18.43;;;4.00;99.90;;;4.78;100.00;101138.84;5094170;28;20629;-53
2021/11/10 02:32:49;;;;;;;21.30;16.17;;;4.00;99.90;;;4.50;100.00;101129.34;5093719;28;20208;-54
2021/11/10 02:35:19;;;;;;;23.97;17.33;;;4.00;99.90;;;4.57;100.00;101135.72;5093945;28;20195;-53
2021/11/10 02:37:52;;;;;;;24.33;17.57;;;3.90;99.90;;;4.76;100.00;101136.34;5093893;28;20413;-55
2021/11/10 02:40:21;;;;;;;24.37;17.87;;;4.00;99.90;;;4.57;100.00;101135.72;5093877;28;20221;-54
2021/11/10 02:42:50;;;;;;;25.27;17.90;;;4.00;99.90;;;4.63;100.00;101137.75;5093661;28;20226;-53
2021/11/10 02:45:19;;;;;;;22.70;16.77;;;4.00;99.90;;;4.50;100.00;101143.50;5093930;28;20305;-54
2021/11/10 02:47:47;;;;;;;24.50;16.33;;;3.90;99.90;;;4.40;100.00;101145.44;5085174;28;20234;-53
2021/11/10 02:50:15;;;;;;;25.03;17.07;;;3.90;99.90;;;4.42;100.00;101143.47;5073400;28;20686;-53
2021/11/10 02:52:44;;;;;;;25.93;18.03;;;3.80;99.90;;;4.35;100.00;101141.56;5073508;28;20256;-52
2021/11/10 02:55:13;;;;;;;26.20;18.07;;;3.80;99.90;;;4.17;100.00;101146.94;5073312;28;20237;-53
2021/11/10 02:57:42;;;;;;;22.40;17.13;;;3.80;99.90;;;4.29;100.00;101155.53;5073570;28;20241;-54
2021/11/10 03:00:13;;;;;;;21.03;17.43;;;3.70;99.90;;;4.10;100.00;101163.69;5073108;28;20214;-53
2021/11/10 03:02:41;;;;;;;21.87;17.67;;;3.70;99.90;;;4.11;100.00;101160.06;5073302;28;20186;-54
2021/11/10 03:05:10;;;;;;;21.37;16.83;;;3.70;99.90;;;4.09;100.00;101159.34;5073416;28;20206;-53
2021/11/10 03:07:38;;;;;;;22.57;17.17;;;3.60;99.90;;;4.18;100.00;101174.44;5073005;28;20216;-52
2021/11/10 03:10:07;;;;;;;24.17;17.93;;;3.60;99.90;;;4.13;100.00;101163.38;5073276;28;20294;-51
2021/11/10 03:12:36;;;;;;;21.77;16.90;;;3.70;99.90;;;4.12;100.00;101167.88;5073130;28;20197;-52
2021/11/10 03:15:07;;;;;;;22.60;17.93;;;3.60;99.90;;;4.20;100.00;101180.44;5072952;28;20302;-50
2021/11/10 03:17:36;;;;;;;23.97;17.30;;;3.60;99.90;;;4.11;100.00;101168.88;5072870;28;20713;-53
2021/11/10 03:20:06;;;;;;;23.70;18.17;;;3.60;99.90;;;3.99;100.00;101179.94;5073193;28;20293;-53
2021/11/10 03:22:34;;;;;;;21.70;16.60;;;3.50;99.90;;;4.25;100.00;101184.31;5072157;28;20277;-51
2021/11/10 03:25:03;;;;;;;25.57;18.40;;;3.50;99.90;;;4.30;100.00;101181.19;5072673;28;20206;-52
2021/11/10 03:27:31;;;;;;;23.53;18.40;;;3.60;99.90;;;4.09;100.00;101175.34;5072983;28;20319;-53
2021/11/10 03:30:01;;;;;;;20.53;17.27;;;3.60;99.90;;;4.16;100.00;101173.75;5072906;28;20314;-51
2021/11/10 03:32:29;;;;;;;23.93;18.73;;;3.60;99.90;;;4.47;100.00;101162.50;5072884;28;20298;-51
2021/11/10 03:34:57;;;;;;;21.00;16.30;;;3.60;99.90;;;4.22;100.00;101151.78;5072776;28;20220;-54
2021/11/10 03:37:25;;;;;;;18.97;16.60;;;3.60;99.90;;;4.22;100.00;101146.47;5072697;28;20202;-51
2021/11/10 03:39:53;;;;;;;22.27;17.30;;;3.70;99.90;;;4.09;100.00;101141.53;5072713;28;20297;-53
2021/11/10 03:42:21;;;;;;;23.50;17.27;;;3.60;99.90;;;4.13;100.00;101140.22;5072189;28;20240;-55
2021/11/10 03:44:49;;;;;;;22.47;16.50;;;3.60;99.90;;;4.14;100.00;101143.75;5072491;28;20198;-55
2021/11/10 03:47:18;;;;;;;23.63;16.63;;;3.60;99.90;;;4.30;100.00;101146.53;5072464;28;20293;-56
2021/11/10 03:49:46;;;;;;;21.53;17.00;;;3.60;99.90;;;4.33;100.00;101152.38;5072331;28;20212;-56
2021/11/10 03:52:15;;;;;;;21.40;16.50;;;3.60;99.90;;;4.25;100.00;101157.66;5072516;28;20293;-53
2021/11/10 03:54:47;;;;;;;20.27;15.93;;;3.70;99.90;;;4.23;100.00;101158.81;5072488;28;20216;-54
2021/11/10 03:57:15;;;;;;;22.47;16.67;;;3.70;99.90;;;4.02;100.00;101153.81;5072485;28;20198;-53
2021/11/10 03:59:43;;;;;;;20.30;15.13;;;3.60;99.90;;;3.95;100.00;101149.22;5072453;28;20226;-56
2021/11/10 04:02:14;;;;;;;19.03;15.47;;;3.60;99.90;;;3.97;100.00;101152.59;5072108;28;20786;-55
2021/11/10 04:04:44;;;;;;;20.57;15.03;;;3.50;99.90;;;3.85;100.00;101156.47;5072430;28;20182;-55
2021/11/10 04:07:12;;;;;;;19.97;15.27;;;3.50;99.90;;;3.95;100.00;101151.88;5072029;28;20205;-57
2021/11/10 04:09:40;;;;;;;20.63;15.97;;;3.40;99.90;;;4.06;100.00;101152.50;5072292;28;20209;-55
2021/11/10 04:12:09;;;;;;;19.43;15.77;;;3.50;99.90;;;4.09;100.00;101149.53;5072291;28;20211;-55
2021/11/10 04:14:37;;;;;;;21.70;14.50;;;3.50;99.90;;;4.09;100.00;101154.88;5071863;28;20779;-56
2021/11/10 04:17:09;;;;;;;19.70;15.10;;;3.50;99.90;;;3.95;100.00;101150.06;5072044;28;20289;-54
2021/11/10 04:19:37;;;;;;;22.60;16.03;;;3.50;99.90;;;3.90;100.00;101147.03;5072019;28;20209;-52
2021/11/10 04:22:08;;;;;;;18.83;14.47;;;3.40;99.90;;;3.78;100.00;101136.72;5071833;28;20204;-53
2021/11/10 04:24:37;;;;;;;18.73;14.47;;;3.40;99.90;;;3.67;100.00;101140.44;5071975;28;20188;-54
2021/11/10 04:27:05;;;;;;;20.27;15.23;;;3.30;99.90;;;4.18;100.00;101139.78;5072001;28;20237;-55
2021/11/10 04:29:33;;;;;;;19.10;15.23;;;3.40;99.90;;;4.30;100.00;101141.19;5071826;28;20214;-53
2021/11/10 04:32:02;;;;;;;19.33;14.83;;;3.50;99.90;;;3.99;100.00;101138.09;5071608;28;20211;-55
2021/11/10 04:34:30;;;;;;;21.87;14.93;;;3.50;99.90;;;3.95;100.00;101138.56;5071322;28;20225;-55
2021/11/10 04:36:58;;;;;;;18.40;14.03;;;3.50;99.90;;;3.85;100.00;101138.66;5071900;28;20225;-55
2021/11/10 04:39:28;;;;;;;17.93;14.63;;;3.40;99.90;;;3.79;100.00;101130.44;5071704;28;20613;-54
2021/11/10 04:41:57;;;;;;;18.43;15.87;;;3.40;99.90;;;3.93;100.00;101129.88;5071725;28;20729;-56
2021/11/10 04:44:26;;;;;;;20.03;15.00;;;3.30;99.90;;;3.87;100.00;101123.34;5071614;28;20203;-55
2021/11/10 04:46:56;;;;;;;21.67;15.80;;;3.30;99.90;;;3.77;100.00;101121.75;5071722;28;20196;-54
2021/11/10 04:49:26;;;;;;;20.27;14.87;;;3.30;99.90;;;3.98;100.00;101114.25;5071306;28;20209;-53
2021/11/10 04:51:57;;;;;;;18.00;15.30;;;3.40;99.90;;;3.84;100.00;101115.63;5071844;28;20277;-54
2021/11/10 04:54:30;;;;;;;19.30;15.93;;;3.30;99.90;;;3.96;100.00;101109.09;5071872;28;20309;-55
2021/11/10 04:57:00;;;;;;;18.03;14.97;;;3.30;99.90;;;3.86;100.00;101105.66;5071984;28;20280;-55
2021/11/10 04:59:30;;;;;;;19.93;15.10;;;3.30;99.90;;;3.82;100.00;101108.81;5072029;28;20290;-55
2021/11/10 05:04:46;;;;;;;20.10;14.47;;;3.30;99.90;;;4.00;100.00;101094.47;5071112;28;20205;-52
2021/11/10 05:07:14;;;;;;;17.50;15.60;;;3.40;99.90;;;4.03;100.00;101096.81;5071851;28;20287;-55
2021/11/10 05:09:42;;;;;;;19.73;15.93;;;3.40;99.90;;;4.22;100.00;101088.66;5071723;28;20284;-54
2021/11/10 05:12:12;;;;;;;16.40;14.00;;;3.50;99.90;;;4.22;100.00;101095.81;5071562;28;20242;-53
2021/11/10 05:14:43;;;;;;;17.63;14.67;;;3.50;99.90;;;3.95;100.00;101088.78;5071210;28;20214;-56
2021/11/10 05:17:11;;;;;;;18.83;14.93;;;3.50;99.90;;;3.94;100.00;101089.75;5071212;28;20211;-52
2021/11/10 05:19:39;;;;;;;21.03;15.33;;;3.40;99.90;;;4.06;100.00;101085.84;5071471;28;20291;-55
2021/11/10 05:22:27;;;;;;;19.37;15.40;;;3.40;99.90;;;4.14;100.00;101082.41;5071606;28;20198;-54
2021/11/10 05:24:55;;;;;;;18.57;15.47;;;3.40;99.90;;;3.93;100.00;101090.75;5071525;28;20286;-55
2021/11/10 05:27:28;;;;;;;17.27;14.80;;;3.40;99.90;;;3.90;100.00;101088.41;5071230;28;20235;-54
2021/11/10 05:29:56;;;;;;;20.23;15.60;;;3.40;99.90;;;4.05;100.00;101086.00;5071245;28;20206;-53
2021/11/10 05:32:24;;;;;;;20.20;15.83;;;3.40;99.90;;;3.96;100.00;101077.09;5071197;28;20196;-54
2021/11/10 05:34:52;;;;;;;21.73;15.73;;;3.40;99.90;;;3.94;100.00;101091.59;5071292;28;20225;-54
2021/11/10 05:37:20;;;;;;;19.40;15.37;;;3.30;99.90;;;3.73;100.00;101087.44;5071407;28;20208;-54
2021/11/10 05:39:48;;;;;;;20.03;15.53;;;3.30;99.90;;;3.82;100.00;101093.66;5071451;28;20202;-54
2021/11/10 05:42:16;;;;;;;17.00;14.67;;;3.20;99.90;;;3.71;100.00;101089.41;5071000;28;20233;-54
2021/11/10 05:44:46;;;;;;;17.03;14.20;;;3.30;99.90;;;3.76;100.00;101088.94;5071276;28;20284;-54
2021/11/10 05:47:14;;;;;;;20.47;15.43;;;3.20;99.90;;;3.86;100.00;101084.34;5074280;28;20695;-55
2021/11/10 05:49:42;;;;;;;21.83;15.40;;;3.20;99.90;;;3.93;100.00;101084.56;5074695;28;20677;-54
2021/11/10 05:52:11;;;;;;;18.37;14.57;;;3.20;99.90;;;3.73;100.00;101089.25;5075021;28;20295;-55
2021/11/10 05:54:40;;;;;;;21.90;15.20;;;3.20;99.90;;;3.66;100.00;101093.50;5074897;28;20308;-51
2021/11/10 05:57:12;;;;;;;16.60;14.27;;;3.10;99.90;;;3.61;100.00;101109.09;5074852;28;20236;-54
2021/11/10 05:59:41;;;;;;;20.00;15.13;;;3.10;99.90;;;3.57;100.00;101102.41;5074570;28;20718;-56
2021/11/10 06:02:11;;;;;;;19.53;16.17;;;3.10;99.90;;;3.66;100.00;101107.66;5074254;28;20301;-55
2021/11/10 06:04:40;;;;;;;21.03;16.63;;;3.10;99.90;;;3.63;100.00;101109.78;5075099;28;20201;-55
2021/11/10 06:07:08;;;;;;;20.00;15.47;;;3.10;99.90;;;3.61;100.00;101103.78;5074333;28;20300;-55
2021/11/10 06:09:37;;;;;;;19.60;15.70;;;3.10;99.90;;;3.76;100.00;101102.25;5074831;28;20233;-52
2021/11/10 06:12:08;;;;;;;19.47;15.70;;;3.10;99.90;;;3.86;100.00;101097.69;5074479;28;20199;-51
2021/11/10 06:14:36;;;;;;;20.03;14.93;;;3.20;99.90;;;3.85;100.00;101100.50;5074413;28;20268;-49
2021/11/10 06:17:04;;;;;;;18.93;16.03;;;3.30;99.90;;;3.85;100.00;101112.00;5074258;28;20292;-53
2021/11/10 06:19:34;;;;;;;21.10;16.27;;;3.20;99.90;;;3.83;100.00;101105.13;5074010;28;20205;-54
2021/11/10 06:22:04;;;;;;;18.90;15.87;;;3.20;99.90;;;3.90;100.00;101107.06;5074021;28;20185;-54
2021/11/10 06:24:32;;;;;;;19.37;15.70;;;3.30;99.90;;;3.82;100.00;101112.31;5074229;28;20204;-54
2021/11/10 06:27:00;;;;;;;19.90;17.43;;;3.30;99.90;;;3.80;100.00;101100.13;5074099;28;20241;-51
2021/11/10 06:29:28;;;;;;;22.07;16.20;;;3.30;99.90;;;3.91;100.00;101100.72;5074179;28;20204;-51
2021/11/10 06:31:56;;;;;;;19.47;15.77;;;3.30;99.90;;;4.02;100.00;101103.16;5073973;28;20673;-53
2021/11/10 06:34:24;;;;;;;22.93;15.00;;;3.40;99.90;;;3.91;100.00;101095.38;5073449;28;20664;-54
2021/11/10 06:36:53;;;;;;;17.27;14.97;;;3.30;99.90;;;4.07;100.00;101100.03;5074011;28;20215;-55
2021/11/10 06:39:21;;;;;;;16.23;13.37;;;3.40;99.90;;;4.00;100.00;101101.63;5073703;28;20446;-56
2021/11/10 06:41:49;;;;;;;19.13;15.37;;;3.50;99.90;;;4.21;100.00;101102.94;5073737;28;20255;-51
2021/11/10 06:44:17;;;;;;;18.17;14.13;;;3.50;99.90;;;4.03;100.00;101104.81;5074070;28;20201;-55
2021/11/10 06:46:45;;;;;;;23.90;15.07;;;3.60;99.90;;;4.03;100.00;101109.31;5073246;28;20206;-56
2021/11/10 06:49:13;;;;;;;18.03;14.43;;;3.60;99.90;;;4.19;100.00;101107.63;5073536;28;20205;-53
2021/11/10 06:51:41;;;;;;;16.93;13.63;;;3.60;99.90;;;4.09;100.00;101116.72;5073779;28;20214;-55
2021/11/10 06:54:13;;;;;;;19.07;13.73;;;3.70;99.90;;;4.29;100.00;101115.53;5070493;28;20631;-54
2021/11/10 06:56:41;;;;;;;15.83;13.57;;;3.70;99.90;;;4.31;100.00;101114.34;5073377;28;20336;-54
2021/11/10 06:59:09;;;;;;;25.43;18.43;;;3.80;99.90;;;4.44;100.00;101109.47;5073349;28;20293;-56
2021/11/10 07:01:37;;;;;;;21.30;16.17;;;3.80;99.90;;;4.35;100.00;101113.06;5073520;28;20301;-54
2021/11/10 07:04:05;;;;;;;18.97;13.20;;;3.80;99.90;;;4.33;100.00;101120.38;5073412;28;20236;-54
2021/11/10 07:06:33;;;;;;;17.40;12.87;;;3.80;99.90;;;4.42;100.00;101118.59;5073399;28;20661;-54
2021/11/10 07:09:01;;;;;;;17.67;12.90;;;3.90;99.90;;;4.45;100.00;101127.13;5073025;28;20317;-50
2021/11/10 07:11:31;;;;;;;14.90;11.90;;;3.90;99.90;;;4.42;100.00;101127.44;5073249;28;20210;-56
2021/11/10 07:13:59;;;;;;;17.20;13.03;;;3.90;99.90;;;4.47;100.00;101130.50;5073265;28;20297;-57
2021/11/10 07:16:27;;;;;;;16.67;13.07;;;4.00;99.90;;;4.48;100.00;101126.81;5072905;28;20584;-53
2021/11/10 07:18:55;;;;;;;15.53;12.33;;;4.00;99.90;;;4.55;100.00;101124.38;5073443;28;20200;-53
2021/11/10 07:21:28;;;;;;;16.63;12.70;;;4.00;99.90;;;4.57;100.00;101125.03;5073421;28;20635;-55
2021/11/10 07:23:57;;;;;;;16.10;12.07;;;4.00;99.90;;;4.64;100.00;101118.94;5073159;28;20740;-55
2021/11/10 07:26:25;;;;;;;17.03;13.00;;;4.10;99.90;;;4.72;100.00;101118.97;5073402;28;20297;-55
2021/11/10 07:28:55;;;;;;;16.20;12.67;;;4.20;99.90;;;4.73;100.00;101114.47;5073900;28;20688;-56
2021/11/10 07:31:23;;;;;;;17.80;12.87;;;4.20;99.90;;;4.98;100.00;101121.59;5074241;28;20286;-54
2021/11/10 07:33:51;;;;;;;12.80;11.33;;;4.30;99.90;;;4.89;100.00;101109.22;5073579;28;20204;-54
2021/11/10 07:36:19;;;;;;;14.40;11.63;;;4.30;99.90;;;4.95;100.00;101114.75;5073051;28;20225;-54
2021/11/10 07:38:48;;;;;;;16.20;11.57;;;4.40;99.90;;;4.99;100.00;101120.59;5073293;28;20320;-55
2021/11/10 07:41:18;;;;;;;17.03;12.80;;;4.50;99.90;;;5.06;100.00;101124.31;5073136;28;20310;-54
2021/11/10 07:43:47;;;;;;;14.50;12.33;;;4.50;99.90;;;5.13;100.00;101132.50;5073385;28;20194;-54
2021/11/10 07:46:18;;;;;;;15.20;12.37;;;4.60;99.90;;;5.15;100.00;101130.53;5073221;28;20663;-54
2021/11/10 07:48:47;;;;;;;16.97;13.10;;;4.60;99.90;;;5.36;100.00;101133.63;5072948;28;20191;-54
2021/11/10 07:51:17;;;;;;;17.47;12.33;;;4.70;99.90;;;5.48;100.00;101137.66;5072690;28;20235;-57
2021/11/10 07:53:46;;;;;;;14.80;11.80;;;4.80;99.90;;;5.68;100.00;101123.81;5073235;28;20207;-55
2021/11/10 07:56:14;;;;;;;14.90;10.87;;;4.90;99.90;;;5.68;100.00;101133.69;5072750;28;20220;-56
2021/11/10 07:58:42;;;;;;;14.40;11.30;;;5.00;99.90;;;5.71;100.00;101118.19;5072436;28;20243;-56
2021/11/10 08:01:11;;;;;;;14.07;10.90;;;5.10;99.90;;;5.83;100.00;101118.72;5072501;28;20294;-58
2021/11/10 08:03:41;;;;;;;14.13;10.93;;;5.20;99.90;;;5.82;100.00;101109.84;5072561;28;20569;-55
2021/11/10 08:06:09;;;;;;;15.17;10.83;;;5.20;99.90;;;5.91;100.00;101108.03;5072540;28;20650;-55
2021/11/10 08:08:37;;;;;;;14.33;11.03;;;5.30;99.90;;;6.13;100.00;101112.72;5071978;28;20309;-57
2021/11/10 08:11:05;;;;;;;16.10;10.43;;;5.40;99.90;;;6.15;100.00;101110.72;5072475;28;20246;-55
2021/11/10 08:13:33;;;;;;;13.30;10.40;;;5.50;99.90;;;6.10;100.00;101108.53;5072815;28;20310;-55
2021/11/10 08:16:02;;;;;;;16.60;11.03;;;5.50;99.90;;;6.21;100.00;101118.06;5071915;28;20227;-49
2021/11/10 08:18:30;;;;;;;18.77;14.50;;;5.50;99.90;;;6.56;100.00;101116.84;5071729;28;20215;-55
2021/11/10 08:20:59;;;;;;;16.90;13.17;;;5.60;99.90;;;6.70;100.00;101125.00;5072407;28;20215;-55
2021/11/10 08:23:28;;;;;;;16.83;13.50;;;5.80;99.90;;;6.79;100.00;101121.31;5072301;28;20201;-54
2021/11/10 08:25:58;;;;;;;14.13;11.43;;;5.80;99.90;;;6.95;100.00;101123.13;5072510;28;20199;-56
2021/11/10 08:28:27;;;;;;;13.23;10.80;;;5.90;99.90;;;6.82;100.00;101131.69;5072183;28;20185;-53
2021/11/10 08:30:56;;;;;;;13.10;10.33;;;6.00;99.90;;;6.72;100.00;101131.03;5071733;28;20296;-53
2021/11/10 08:33:28;;;;;;;17.17;12.80;;;6.00;99.90;;;6.96;100.00;101127.44;5071560;28;20196;-55
2021/11/10 08:35:57;;;;;;;14.33;10.50;;;6.10;99.90;;;6.77;100.00;101131.34;5071840;28;20268;-52
2021/11/10 08:38:28;;;;;;;14.47;11.63;;;6.00;99.90;;;6.82;100.00;101130.84;5071978;28;20277;-58
2021/11/10 08:40:58;;;;;;;16.20;12.37;;;6.00;99.90;;;7.02;100.00;101129.44;5071979;28;20299;-55
2021/11/10 08:43:27;;;;;;;14.53;11.87;;;6.10;99.90;;;7.13;100.00;101124.56;5071294;28;20267;-52
2021/11/10 08:45:57;;;;;;;13.87;10.23;;;6.20;99.90;;;7.07;100.00;101122.56;5071316;28;20294;-55
2021/11/10 08:48:27;;;;;;;12.23;10.53;;;6.30;99.90;;;7.20;100.00;101127.38;5071287;28;20601;-51
2021/11/10 08:50:57;;;;;;;12.83;10.33;;;6.20;99.90;;;7.09;100.00;101128.56;5071629;28;20203;-50
2021/11/10 08:53:26;;;;;;;14.67;10.60;;;6.20;99.90;;;7.06;100.00;101130.75;5071415;28;20667;-50
2021/11/10 08:55:57;;;;;;;14.63;10.00;;;6.20;99.90;;;7.15;100.00;101130.53;5071617;28;20210;-50
2021/11/10 08:58:27;;;;;;;14.93;11.30;;;6.30;99.90;;;7.33;100.00;101123.13;5071207;28;20243;-51
2021/11/10 09:00:58;;;;;;;15.03;10.33;;;6.30;99.90;;;7.44;100.00;101124.59;5071438;28;20214;-51
2021/11/10 09:03:27;;;;;;;15.33;10.30;;;6.50;99.90;;;7.49;100.00;101121.38;5071651;28;20292;-49
2021/11/10 09:05:56;;;;;;;14.10;10.23;;;6.50;99.90;;;7.88;100.00;101120.25;5071460;28;20197;-54
2021/11/10 09:08:27;;;;;;;14.50;9.80;;;6.80;99.90;;;8.34;100.00;101110.34;5072117;28;20201;-50
2021/11/10 09:10:56;;;;;;;12.93;10.03;;;7.00;99.90;;;8.22;100.00;101106.44;5071721;28;20292;-53
2021/11/10 09:13:24;;;;;;;11.53;9.57;;;7.20;99.90;;;8.24;100.00;101107.09;5071847;28;20656;-53
2021/11/10 09:15:52;;;;;;;13.30;10.23;;;7.30;99.90;;;8.37;100.00;101100.09;5071174;28;20571;-57
2021/11/10 09:18:21;;;;;;;14.47;10.50;;;7.40;99.90;;;8.79;100.00;101094.13;5071090;28;20235;-54
2021/11/10 09:20:49;;;;;;;14.20;10.43;;;7.40;99.90;;;9.25;100.00;101092.88;5074505;28;20205;-50
2021/11/10 09:23:20;;;;;;;11.33;8.90;;;7.90;99.90;;;9.35;100.00;101098.78;5075299;28;20211;-54
2021/11/10 09:25:50;;;;;;;13.03;9.03;;;8.10;99.90;;;9.31;99.92;101096.69;5074959;28;20181;-53
2021/11/10 09:28:21;;;;;;;11.13;9.30;;;8.30;99.90;;;9.28;99.52;101094.38;5075143;28;20272;-54
2021/11/10 09:30:53;;;;;;;12.13;8.93;;;8.20;99.90;;;8.96;100.00;101101.00;5075274;28;20195;-52
2021/11/10 09:33:24;;;;;;;13.17;10.07;;;8.10;99.90;;;9.07;100.00;101103.19;5075037;28;20225;-55
2021/11/10 09:35:55;;;;;;;12.03;9.63;;;8.20;99.90;;;8.71;100.00;101101.44;5075416;28;20608;-50
2021/11/10 09:38:23;;;;;;;11.77;9.00;;;8.00;99.90;;;8.63;100.00;101094.28;5075110;28;20209;-55
2021/11/10 09:40:58;;;;;;;13.57;10.13;;;7.90;99.90;;;8.73;100.00;101096.72;5075011;28;20205;-51
2021/11/10 09:43:33;;;;;;;11.43;9.17;;;7.80;99.90;;;8.51;100.00;101091.22;5074849;28;20256;-50
2021/11/10 09:46:02;;;;;;;10.60;9.20;;;7.70;99.90;;;8.64;100.00;101095.97;5074801;28;20191;-49
2021/11/10 09:48:31;;;;;;;13.47;9.30;;;7.70;99.90;;;8.73;100.00;101099.41;5074442;28;20232;-51
2021/11/10 09:51:00;;;;;;;11.10;9.37;;;7.80;99.90;;;8.77;100.00;101101.53;5074752;28;20283;-51
2021/11/10 09:53:31;;;;;;;11.40;8.90;;;7.80;99.90;;;8.80;100.00;101095.78;5074642;28;20632;-54
2021/11/10 09:56:01;;;;;;;12.77;9.60;;;7.80;99.90;;;9.08;100.00;101102.16;5074602;28;20284;-51
2021/11/10 09:58:32;;;;;;;12.60;9.47;;;8.00;99.90;;;9.11;100.00;101099.13;5074630;28;20308;-53
2021/11/10 10:01:06;;;;;;;12.03;10.03;;;8.00;99.90;;;9.32;100.00;101099.16;5074604;28;20280;-53
2021/11/10 10:03:35;;;;;;;12.47;9.53;;;8.10;99.90;;;9.14;100.00;101093.38;5074553;28;20195;-54
2021/11/10 10:06:05;;;;;;;12.63;9.70;;;8.20;99.90;;;9.03;100.00;101091.13;5074522;28;20296;-52
2021/11/10 10:08:33;;;;;;;12.37;9.87;;;8.20;99.90;;;9.29;100.00;101096.88;5074541;28;20266;-54
2021/11/10 10:11:03;;;;;;;13.87;9.80;;;8.20;99.90;;;9.07;100.00;101095.13;5074452;28;20292;-53
2021/11/10 10:13:31;;;;;;;12.40;10.10;;;8.20;99.90;;;9.19;100.00;101090.09;5074420;28;20207;-52
2021/11/10 10:15:59;;;;;;;13.27;9.60;;;8.30;99.90;;;9.04;100.00;101090.13;5074005;28;20232;-54
2021/11/10 10:18:30;;;;;;;14.17;9.77;;;8.20;99.90;;;9.23;100.00;101086.03;5073789;28;20714;-52